Elkhurst, Missouri
Current Conditions -  °F | °C
As of 8:22 AM on Saturday 25 Oct 2014 (Local Time) from KCOU Reporting Station
Moderate Fog Moderate Fog  
Wind Chill: 58°   Ceiling: 1000
Heat Index: 58°   Visibility: 0.25mi
Dew Point: 58°   Wind: 5mph
Humidity: 100%   Direction: 330°NNW
Pressure: 30.05"   Gusts: NA
Location:  38.8994°N, 92.2391°W
Report Text: KCOU 251322Z 33004KT 1/4SM FG VV010 14/14 A3005 RMK AO2 T01440144 $
Loading
Personal Weather Stations






























Interactive Weather Map
Tropical Storm Tracking
New forecast layout! Learn more

10-Day Weather Forecast

Advertisements
Track Severe Weather on mobile